Time;durP1;ratioP1;P1;durP2;ratioP2;P2;SDS_P1;SDS_P2;PMS_P1;PMS_P2;Temp;Humidity;BMP_temperature;BMP_pressure;BME280_temperature;BME280_humidity;BME280_pressure;Samples;Min_cycle;Max_cycle;Signal;HPM_P1;HPM_P2
2023/07/20 00:00:53;;;;;;;4.05;2.58;;;19.20;99.90;;;;;;2091309;28;20633;-70
2023/07/20 00:01:53;;;;;;;2.65;2.25;;;19.20;99.90;;;;;;2092072;28;20025;-70
2023/07/20 00:03:11;;;;;;;5.68;3.00;;;19.10;99.90;;;;;;2091988;28;20100;-70
2023/07/20 00:04:13;;;;;;;4.55;2.92;;;19.10;99.90;;;;;;2090888;28;20131;-70
2023/07/20 00:05:13;;;;;;;3.05;2.60;;;19.20;99.90;;;;;;2092204;28;20023;-70
2023/07/20 00:06:14;;;;;;;4.60;3.00;;;19.10;99.90;;;;;;2091473;28;20387;-70
2023/07/20 00:07:14;;;;;;;5.70;3.50;;;19.10;99.90;;;;;;2092230;28;20052;-70
2023/07/20 00:08:16;;;;;;;3.50;2.65;;;19.10;99.90;;;;;;2091002;28;20032;-70
2023/07/20 00:09:16;;;;;;;3.78;2.97;;;19.10;99.90;;;;;;2093249;28;20016;-70
2023/07/20 00:10:17;;;;;;;4.68;2.95;;;19.10;99.90;;;;;;2092560;28;20106;-70
2023/07/20 00:11:18;;;;;;;3.78;3.10;;;19.10;99.90;;;;;;2093571;28;20015;-70
2023/07/20 00:12:19;;;;;;;3.97;3.05;;;19.20;99.90;;;;;;2095246;28;20020;-70
2023/07/20 00:13:20;;;;;;;4.40;3.22;;;19.20;99.90;;;;;;2093266;28;20119;-70
2023/07/20 00:14:21;;;;;;;5.88;3.05;;;19.20;99.90;;;;;;2090941;28;20020;-70
2023/07/20 00:15:22;;;;;;;3.25;2.63;;;19.20;99.90;;;;;;2092935;28;20032;-70
2023/07/20 00:16:22;;;;;;;4.30;3.00;;;19.20;99.90;;;;;;2092718;28;20494;-70
2023/07/20 00:17:23;;;;;;;4.40;2.78;;;19.20;99.90;;;;;;2093853;28;20031;-70
2023/07/20 00:18:24;;;;;;;6.78;2.83;;;19.10;99.90;;;;;;2092383;28;20053;-70
2023/07/20 00:19:26;;;;;;;2.75;2.05;;;19.10;99.90;;;;;;2094447;28;20032;-70
2023/07/20 00:20:26;;;;;;;3.58;2.47;;;19.10;99.90;;;;;;2089870;28;20370;-70
2023/07/20 00:21:27;;;;;;;5.18;2.78;;;19.10;99.90;;;;;;2091449;28;20147;-70
2023/07/20 00:22:27;;;;;;;2.58;1.85;;;19.10;99.90;;;;;;2091724;28;20024;-70
2023/07/20 00:23:28;;;;;;;4.90;2.72;;;19.10;99.90;;;;;;2092942;28;20049;-70
2023/07/20 00:24:29;;;;;;;4.15;2.60;;;19.10;99.90;;;;;;2092118;28;20017;-70
2023/07/20 00:25:29;;;;;;;5.35;2.13;;;19.10;99.90;;;;;;2092718;28;20016;-70
2023/07/20 00:26:30;;;;;;;3.88;3.30;;;19.10;99.90;;;;;;2092921;28;20839;-70
2023/07/20 00:27:30;;;;;;;9.27;2.70;;;19.10;99.90;;;;;;2092862;28;20071;-70
2023/07/20 00:28:31;;;;;;;4.05;2.30;;;19.10;99.90;;;;;;2092333;28;20139;-70
2023/07/20 00:29:31;;;;;;;3.13;2.83;;;19.10;99.90;;;;;;2092222;28;20037;-70
2023/07/20 00:30:32;;;;;;;2.78;2.40;;;19.10;99.90;;;;;;2092247;28;20021;-70
2023/07/20 00:31:34;;;;;;;5.88;2.83;;;19.10;99.90;;;;;;2093891;28;20064;-70
2023/07/20 00:32:35;;;;;;;4.60;2.95;;;19.10;99.90;;;;;;2093294;28;20057;-70
2023/07/20 00:33:35;;;;;;;4.03;2.67;;;19.10;99.90;;;;;;2091254;28;20025;-70
2023/07/20 00:34:36;;;;;;;3.97;2.83;;;19.10;99.90;;;;;;2092453;28;20415;-70
2023/07/20 00:35:37;;;;;;;4.50;2.63;;;19.10;99.90;;;;;;2094745;28;20028;-70
2023/07/20 00:36:38;;;;;;;4.93;2.55;;;19.20;99.90;;;;;;2093039;28;20503;-70
2023/07/20 00:37:39;;;;;;;4.65;3.00;;;19.10;99.90;;;;;;2093004;28;20388;-70
2023/07/20 00:38:40;;;;;;;4.38;3.17;;;19.10;99.90;;;;;;2095129;28;20036;-70
2023/07/20 00:39:41;;;;;;;4.13;2.53;;;19.10;99.90;;;;;;2094777;28;20021;-70
2023/07/20 00:40:41;;;;;;;4.70;2.47;;;19.10;99.90;;;;;;2093880;28;20028;-70
2023/07/20 00:41:42;;;;;;;3.00;2.70;;;19.10;99.90;;;;;;2093472;28;20388;-70
2023/07/20 00:42:42;;;;;;;3.30;2.70;;;19.10;99.90;;;;;;2092390;28;20017;-70
2023/07/20 00:43:43;;;;;;;4.63;2.75;;;19.10;99.90;;;;;;2093132;28;20025;-70
2023/07/20 00:44:43;;;;;;;4.38;2.97;;;19.10;99.90;;;;;;2092097;28;20088;-70
2023/07/20 00:45:45;;;;;;;3.53;3.00;;;19.10;99.90;;;;;;2092868;28;20458;-70
2023/07/20 00:46:46;;;;;;;4.22;2.75;;;19.10;99.90;;;;;;2092368;28;20350;-70
2023/07/20 00:47:46;;;;;;;3.83;2.80;;;19.10;99.90;;;;;;2092359;28;20441;-70
2023/07/20 00:48:47;;;;;;;3.75;3.42;;;19.10;99.90;;;;;;2096096;28;20097;-70
2023/07/20 00:49:48;;;;;;;2.88;2.50;;;19.10;99.90;;;;;;2095589;28;20048;-70
2023/07/20 00:50:49;;;;;;;5.35;2.58;;;19.10;99.90;;;;;;2091536;28;20033;-70
2023/07/20 00:51:50;;;;;;;5.55;2.80;;;19.10;99.90;;;;;;2091139;28;20123;-70
2023/07/20 00:52:51;;;;;;;5.65;2.42;;;19.10;99.90;;;;;;2092406;28;20055;-70
2023/07/20 00:53:51;;;;;;;3.47;2.90;;;19.10;99.90;;;;;;2093205;28;20024;-70
2023/07/20 00:54:56;;;;;;;5.65;2.80;;;19.10;99.90;;;;;;2091552;28;20044;-70
2023/07/20 00:55:57;;;;;;;3.90;2.95;;;19.10;99.90;;;;;;2091408;28;20037;-70
2023/07/20 00:56:59;;;;;;;6.47;2.88;;;19.10;99.90;;;;;;2092336;28;20021;-70
2023/07/20 00:58:00;;;;;;;4.15;2.50;;;19.20;99.90;;;;;;2092604;28;20024;-70
2023/07/20 00:59:00;;;;;;;7.38;2.60;;;19.10;99.90;;;;;;2091756;28;20037;-70
2023/07/20 01:00:01;;;;;;;4.32;2.67;;;19.10;99.90;;;;;;2091898;28;20537;-70
2023/07/20 01:01:02;;;;;;;3.22;2.17;;;19.10;99.90;;;;;;2091707;28;20040;-70
2023/07/20 01:02:03;;;;;;;3.58;2.80;;;19.10;99.90;;;;;;2091644;28;20021;-70
2023/07/20 01:03:03;;;;;;;3.72;2.00;;;19.10;99.90;;;;;;2094406;28;20538;-70
2023/07/20 01:04:04;;;;;;;4.75;2.60;;;19.10;99.90;;;;;;2092174;28;20036;-70
2023/07/20 01:05:06;;;;;;;3.97;2.53;;;19.10;99.90;;;;;;2091539;28;20499;-70
2023/07/20 01:06:14;;;;;;;5.40;2.70;;;19.10;99.90;;;;;;2092819;28;20034;-70
2023/07/20 01:07:30;;;;;;;3.13;2.30;;;19.10;99.90;;;;;;2092223;28;20067;-70
2023/07/20 01:08:49;;;;;;;4.35;2.78;;;19.10;99.90;;;;;;2092388;28;20025;-70
2023/07/20 01:09:58;;;;;;;3.08;2.13;;;19.10;99.90;;;;;;2092427;28;20029;-70
2023/07/20 01:11:12;;;;;;;3.28;2.30;;;19.10;99.90;;;;;;2093052;28;20024;-70
2023/07/20 01:12:23;;;;;;;3.92;2.60;;;19.10;99.90;;;;;;2090480;28;20112;-70
2023/07/20 01:13:24;;;;;;;;;;;19.10;99.90;;;;;;2093743;28;20020;-70
2023/07/20 01:14:25;;;;;;;3.97;2.60;;;19.00;99.90;;;;;;2091960;28;20288;-70
2023/07/20 01:15:26;;;;;;;4.32;3.13;;;19.00;99.90;;;;;;2092764;28;20017;-70
2023/07/20 01:16:27;;;;;;;3.63;2.15;;;19.00;99.90;;;;;;2092822;28;20112;-70
2023/07/20 01:17:27;;;;;;;3.20;2.33;;;19.00;99.90;;;;;;2092934;28;20036;-70
2023/07/20 01:18:28;;;;;;;3.10;2.20;;;19.00;99.90;;;;;;2093360;28;20035;-70
2023/07/20 01:19:29;;;;;;;3.92;2.60;;;19.00;99.90;;;;;;2092551;28;20025;-70
2023/07/20 01:20:32;;;;;;;2.20;2.00;;;19.00;99.90;;;;;;2090716;28;20116;-70
2023/07/20 01:21:53;;;;;;;4.68;2.10;;;19.00;99.90;;;;;;2092067;28;20024;-70
2023/07/20 01:23:39;;;;;;;3.83;2.65;;;19.00;99.90;;;;;;2091111;28;20389;-70
2023/07/20 01:24:48;;;;;;;3.75;2.20;;;19.00;99.90;;;;;;2091422;28;20096;-70
2023/07/20 01:26:01;;;;;;;3.20;2.30;;;19.00;99.90;;;;;;2091452;28;20025;-70
2023/07/20 01:27:33;;;;;;;4.53;2.08;;;19.00;99.90;;;;;;2092134;28;20064;-70
2023/07/20 01:29:11;;;;;;;3.05;2.28;;;19.00;99.90;;;;;;2093211;28;20032;-70
2023/07/20 01:30:35;;;;;;;4.28;2.83;;;18.90;99.90;;;;;;2092813;28;20055;-70
2023/07/20 01:31:38;;;;;;;6.55;3.40;;;18.90;99.90;;;;;;2091436;28;20078;-70
2023/07/20 01:32:42;;;;;;;3.38;2.20;;;18.90;99.90;;;;;;2092888;28;20066;-70
2023/07/20 01:33:44;;;;;;;3.90;2.80;;;18.90;99.90;;;;;;2092141;28;20024;-70
2023/07/20 01:34:47;;;;;;;3.72;2.80;;;18.90;99.90;;;;;;2091579;28;20480;-70
2023/07/20 01:35:56;;;;;;;3.75;3.20;;;18.90;99.90;;;;;;2092799;28;20033;-70
2023/07/20 01:36:57;;;;;;;2.50;2.28;;;18.90;99.90;;;;;;2092327;28;20469;-70
2023/07/20 01:37:59;;;;;;;6.15;3.47;;;18.90;99.90;;;;;;2092334;28;20382;-70
2023/07/20 01:39:00;;;;;;;5.95;3.35;;;18.90;99.90;;;;;;2092119;28;20036;-70
2023/07/20 01:40:01;;;;;;;3.35;2.88;;;19.00;99.90;;;;;;2092262;28;20032;-70
2023/07/20 01:41:02;;;;;;;5.03;3.17;;;19.00;99.90;;;;;;2092699;28;20033;-70
2023/07/20 01:42:03;;;;;;;6.40;2.70;;;19.00;99.90;;;;;;2093255;28;20052;-70
2023/07/20 01:43:04;;;;;;;3.00;2.70;;;19.00;99.90;;;;;;2091383;28;20040;-70
2023/07/20 01:44:04;;;;;;;4.18;3.30;;;19.00;99.90;;;;;;2092555;28;20024;-70
2023/07/20 01:45:05;;;;;;;5.22;2.60;;;19.00;99.90;;;;;;2092990;28;20481;-70
2023/07/20 01:46:06;;;;;;;4.78;2.83;;;18.90;99.90;;;;;;2091159;28;20029;-70
2023/07/20 01:47:07;;;;;;;4.18;3.20;;;18.90;99.90;;;;;;2093716;28;20031;-70
2023/07/20 01:48:07;;;;;;;5.10;2.97;;;18.90;99.90;;;;;;2092743;28;20032;-70
2023/07/20 01:49:08;;;;;;;3.60;2.83;;;18.90;99.90;;;;;;2092215;28;20040;-70
2023/07/20 01:50:09;;;;;;;3.10;2.78;;;18.90;99.90;;;;;;2090748;28;20119;-70
2023/07/20 01:51:09;;;;;;;6.03;3.20;;;18.90;99.90;;;;;;2091938;28;20029;-70
2023/07/20 01:52:10;;;;;;;4.57;3.25;;;18.90;99.90;;;;;;2092456;28;20104;-70
2023/07/20 01:53:11;;;;;;;4.85;3.20;;;18.90;99.90;;;;;;2091295;28;20421;-70
2023/07/20 01:54:11;;;;;;;4.88;3.15;;;18.90;99.90;;;;;;2091990;28;20060;-70
2023/07/20 01:55:12;;;;;;;7.03;3.63;;;18.90;99.90;;;;;;2092206;28;20052;-70
2023/07/20 01:56:15;;;;;;;5.72;3.75;;;18.90;99.90;;;;;;2090747;28;20057;-70
2023/07/20 01:57:15;;;;;;;5.53;3.28;;;18.90;99.90;;;;;;2093642;28;20162;-70
2023/07/20 01:58:16;;;;;;;3.40;2.88;;;18.80;99.90;;;;;;2093365;28;20028;-70
2023/07/20 01:59:16;;;;;;;3.40;3.00;;;18.80;99.90;;;;;;2091814;28;20075;-70
2023/07/20 02:00:21;;;;;;;3.80;2.75;;;18.80;99.90;;;;;;2091813;28;20370;-70
2023/07/20 02:01:21;;;;;;;6.50;4.22;;;18.80;99.90;;;;;;2090963;28;20017;-70
2023/07/20 02:02:26;;;;;;;5.65;3.80;;;18.80;99.90;;;;;;2091084;28;20476;-70
2023/07/20 02:03:26;;;;;;;8.20;3.53;;;18.80;99.90;;;;;;2094858;28;20189;-70
2023/07/20 02:04:27;;;;;;;4.68;3.25;;;18.80;99.90;;;;;;2094795;28;20094;-70
2023/07/20 02:05:27;;;;;;;4.13;3.47;;;18.80;99.90;;;;;;2091619;28;20071;-70
2023/07/20 02:06:28;;;;;;;5.28;3.30;;;18.80;99.90;;;;;;2092190;28;20020;-70
2023/07/20 02:07:29;;;;;;;3.58;3.30;;;18.70;99.90;;;;;;2090657;28;20047;-70
2023/07/20 02:08:29;;;;;;;4.65;3.63;;;18.70;99.90;;;;;;2092424;28;20052;-70
2023/07/20 02:09:30;;;;;;;6.97;3.65;;;18.70;99.90;;;;;;2092919;28;20155;-70
2023/07/20 02:10:31;;;;;;;5.28;3.65;;;18.70;99.90;;;;;;2092467;28;20059;-70
2023/07/20 02:11:31;;;;;;;4.53;3.28;;;18.70;99.90;;;;;;2092316;28;20033;-70
2023/07/20 02:12:32;;;;;;;3.05;2.75;;;18.70;99.90;;;;;;2092416;28;20052;-70
2023/07/20 02:13:32;;;;;;;5.35;2.55;;;18.70;99.90;;;;;;2092954;28;20029;-70
2023/07/20 02:14:33;;;;;;;5.35;3.45;;;18.70;99.90;;;;;;2093014;28;20062;-70
2023/07/20 02:15:33;;;;;;;7.47;3.42;;;18.70;99.90;;;;;;2090285;28;20040;-70
2023/07/20 02:16:34;;;;;;;3.78;3.38;;;18.70;99.90;;;;;;2091273;28;20028;-70
2023/07/20 02:17:34;;;;;;;6.65;4.03;;;18.70;99.90;;;;;;2091278;28;20033;-70
2023/07/20 02:18:36;;;;;;;4.88;3.60;;;18.70;99.90;;;;;;2092265;28;20555;-70
2023/07/20 02:19:37;;;;;;;5.63;4.07;;;18.70;99.90;;;;;;2091281;28;20055;-70
2023/07/20 02:20:38;;;;;;;5.53;3.25;;;18.70;99.90;;;;;;2090861;28;20035;-70
2023/07/20 02:21:38;;;;;;;7.18;3.38;;;18.70;99.90;;;;;;2090811;28;20059;-70
2023/07/20 02:22:39;;;;;;;4.47;3.15;;;18.70;99.90;;;;;;2091889;28;20029;-70
2023/07/20 02:23:40;;;;;;;5.07;3.70;;;18.70;99.90;;;;;;2093382;28;20366;-70
2023/07/20 02:24:40;;;;;;;4.50;2.83;;;18.70;99.90;;;;;;2090414;28;20051;-70
2023/07/20 02:25:41;;;;;;;6.38;3.92;;;18.70;99.90;;;;;;2090813;28;20024;-70
2023/07/20 02:26:44;;;;;;;6.38;4.03;;;18.70;99.90;;;;;;2092577;28;20063;-70
2023/07/20 02:27:45;;;;;;;5.38;3.70;;;18.70;99.90;;;;;;2092001;28;20086;-70
2023/07/20 02:28:46;;;;;;;5.38;3.90;;;18.70;99.90;;;;;;2091373;28;20037;-70
2023/07/20 02:29:46;;;;;;;5.45;3.78;;;18.70;99.90;;;;;;2090119;28;20066;-70
2023/07/20 02:30:47;;;;;;;9.55;4.68;;;18.70;99.90;;;;;;2090906;28;20063;-70
2023/07/20 02:31:47;;;;;;;7.22;5.00;;;18.70;99.90;;;;;;2091237;28;20039;-70
2023/07/20 02:32:48;;;;;;;6.90;4.50;;;18.70;99.90;;;;;;2091119;28;20056;-70
2023/07/20 02:33:49;;;;;;;5.80;5.20;;;18.70;99.90;;;;;;2091661;28;20060;-70
2023/07/20 02:34:49;;;;;;;5.57;4.88;;;18.70;99.90;;;;;;2092170;28;20412;-69
2023/07/20 02:35:50;;;;;;;9.50;5.82;;;18.70;99.90;;;;;;2091837;28;20033;-69
2023/07/20 02:36:50;;;;;;;7.53;6.15;;;18.70;99.90;;;;;;2091713;28;20387;-69
2023/07/20 02:37:51;;;;;;;9.40;6.50;;;18.70;99.90;;;;;;2090307;28;20029;-69
2023/07/20 02:38:51;;;;;;;7.32;5.65;;;18.60;99.90;;;;;;2092323;28;20044;-69
2023/07/20 02:39:52;;;;;;;7.22;6.03;;;18.60;99.90;;;;;;2091699;28;20592;-70
2023/07/20 02:40:53;;;;;;;10.48;5.90;;;18.60;99.90;;;;;;2093317;28;20432;-70
2023/07/20 02:41:53;;;;;;;12.40;6.55;;;18.60;99.90;;;;;;2093786;28;20024;-70
2023/07/20 02:42:54;;;;;;;12.40;7.18;;;18.60;99.90;;;;;;2091859;28;20032;-70
2023/07/20 02:43:56;;;;;;;10.52;7.07;;;18.60;99.90;;;;;;2093027;28;20016;-70
2023/07/20 02:44:57;;;;;;;9.27;6.55;;;18.60;99.90;;;;;;2094194;28;20024;-70
2023/07/20 02:45:57;;;;;;;9.73;5.60;;;18.70;99.90;;;;;;2094541;28;20031;-70
2023/07/20 02:46:58;;;;;;;7.70;5.18;;;18.70;99.90;;;;;;2094841;28;20033;-70
2023/07/20 02:47:58;;;;;;;7.63;5.28;;;18.70;99.90;;;;;;2091843;28;20492;-70
2023/07/20 02:48:59;;;;;;;7.05;5.35;;;18.70;99.90;;;;;;2090333;28;20024;-70
2023/07/20 02:49:59;;;;;;;7.25;5.68;;;18.70;99.90;;;;;;2091120;28;20028;-70
2023/07/20 02:51:00;;;;;;;8.50;5.30;;;18.70;99.90;;;;;;2091848;28;20063;-70
2023/07/20 02:52:00;;;;;;;8.85;5.00;;;18.70;99.90;;;;;;2093558;28;20037;-70
2023/07/20 02:53:01;;;;;;;7.28;5.35;;;18.70;99.90;;;;;;2090231;28;20071;-70
2023/07/20 02:54:03;;;;;;;9.60;6.25;;;18.70;99.90;;;;;;2091746;28;20082;-70
2023/07/20 02:55:04;;;;;;;9.95;5.95;;;18.70;99.90;;;;;;2091355;28;20108;-70
2023/07/20 02:56:04;;;;;;;10.88;6.20;;;18.70;99.90;;;;;;2092644;28;20476;-70
2023/07/20 02:57:05;;;;;;;9.35;5.90;;;18.70;99.90;;;;;;2092901;28;20039;-70
2023/07/20 02:58:06;;;;;;;8.95;6.13;;;18.70;99.90;;;;;;2091699;28;20079;-70
2023/07/20 02:59:06;;;;;;;8.95;6.18;;;18.70;99.90;;;;;;2099831;28;20021;-70
2023/07/20 03:00:07;;;;;;;8.80;5.47;;;18.70;99.90;;;;;;2100623;28;20162;-70
2023/07/20 03:01:09;;;;;;;7.78;5.60;;;18.70;99.90;;;;;;2092532;28;20029;-70
2023/07/20 03:02:10;;;;;;;6.90;5.03;;;18.70;99.90;;;;;;2092016;28;20028;-70
2023/07/20 03:03:11;;;;;;;11.07;5.85;;;18.70;99.90;;;;;;2091389;28;20816;-70
2023/07/20 03:04:11;;;;;;;12.43;6.38;;;18.70;99.90;;;;;;2091685;28;20069;-70
2023/07/20 03:05:12;;;;;;;11.65;6.20;;;18.70;99.90;;;;;;2091422;28;20033;-70
2023/07/20 03:06:14;;;;;;;10.27;6.35;;;18.70;99.90;;;;;;2092278;28;20025;-70
2023/07/20 03:07:14;;;;;;;12.18;6.90;;;18.70;99.90;;;;;;2092800;28;20018;-70
2023/07/20 03:08:15;;;;;;;9.00;6.30;;;18.70;99.90;;;;;;2091384;28;20096;-70
2023/07/20 03:09:15;;;;;;;9.95;5.97;;;18.70;99.90;;;;;;2092582;28;20025;-70
2023/07/20 03:10:16;;;;;;;7.50;6.45;;;18.70;99.90;;;;;;2093845;28;20012;-71
2023/07/20 03:11:18;;;;;;;7.43;5.35;;;18.70;99.90;;;;;;2092224;28;20043;-70
2023/07/20 03:12:18;;;;;;;9.15;5.72;;;18.70;99.90;;;;;;2091877;28;20017;-70
2023/07/20 03:13:19;;;;;;;7.55;5.13;;;18.60;99.90;;;;;;2093030;28;20052;-70
2023/07/20 03:14:20;;;;;;;7.82;5.13;;;18.60;99.90;;;;;;2092388;28;20612;-70
2023/07/20 03:15:20;;;;;;;6.60;5.90;;;18.60;99.90;;;;;;2092463;28;20075;-70
2023/07/20 03:16:23;;;;;;;6.65;5.72;;;18.60;99.90;;;;;;2092075;28;20112;-70
2023/07/20 03:17:23;;;;;;;7.15;5.90;;;18.60;99.90;;;;;;2091870;28;20063;-71
2023/07/20 03:18:24;;;;;;;9.20;4.90;;;18.60;99.90;;;;;;2091092;28;20028;-71
2023/07/20 03:19:25;;;;;;;5.22;4.63;;;18.60;99.90;;;;;;2090774;28;20064;-71
2023/07/20 03:20:27;;;;;;;6.68;5.65;;;18.60;99.90;;;;;;2090976;28;20020;-70
2023/07/20 03:21:28;;;;;;;5.95;5.35;;;18.60;99.90;;;;;;2092802;28;20024;-70
2023/07/20 03:22:29;;;;;;;7.68;5.53;;;18.60;99.90;;;;;;2092274;28;20033;-70
2023/07/20 03:23:30;;;;;;;9.43;5.95;;;18.60;99.90;;;;;;2091191;28;20146;-71
2023/07/20 03:24:30;;;;;;;6.68;5.97;;;18.60;99.90;;;;;;2091589;28;20029;-71
2023/07/20 03:25:31;;;;;;;8.20;6.10;;;18.60;99.90;;;;;;2093971;28;20025;-71
2023/07/20 03:26:31;;;;;;;7.50;6.57;;;18.60;99.90;;;;;;2093000;28;20089;-71
2023/07/20 03:27:32;;;;;;;9.18;7.25;;;18.60;99.90;;;;;;2090926;28;20021;-70
2023/07/20 03:28:32;;;;;;;9.48;8.02;;;18.60;99.90;;;;;;2091087;28;20419;-70
2023/07/20 03:29:33;;;;;;;7.35;6.63;;;18.60;99.90;;;;;;2092887;28;20542;-70
2023/07/20 03:30:34;;;;;;;9.52;7.15;;;18.60;99.90;;;;;;2091166;28;20032;-70
2023/07/20 03:31:35;;;;;;;8.82;7.15;;;18.60;99.90;;;;;;2091331;28;20027;-70
2023/07/20 03:32:36;;;;;;;8.77;6.22;;;18.60;99.90;;;;;;2091992;28;20590;-70
2023/07/20 03:33:37;;;;;;;9.52;7.82;;;18.60;99.90;;;;;;2090406;28;20337;-70
2023/07/20 03:34:37;;;;;;;7.90;6.78;;;18.60;99.90;;;;;;2090226;28;20024;-70
2023/07/20 03:35:38;;;;;;;9.10;7.88;;;18.60;99.90;;;;;;2091974;28;20024;-70
2023/07/20 03:36:38;;;;;;;10.35;8.70;;;18.60;99.90;;;;;;2091279;28;20542;-70
2023/07/20 03:37:39;;;;;;;9.15;7.90;;;18.60;99.90;;;;;;2091337;28;20222;-70
2023/07/20 03:38:39;;;;;;;8.05;6.60;;;18.60;99.90;;;;;;2089729;28;20040;-70
2023/07/20 03:39:40;;;;;;;12.85;8.93;;;18.60;99.90;;;;;;2087741;28;20036;-70
2023/07/20 03:40:58;;;;;;;11.80;9.73;;;18.60;99.90;;;;;;2090837;28;20587;-71
2023/07/20 03:41:59;;;;;;;11.00;8.48;;;18.60;99.90;;;;;;2091549;28;20116;-71
2023/07/20 03:42:59;;;;;;;10.73;9.57;;;18.60;99.90;;;;;;2092853;28;20027;-71
2023/07/20 03:44:00;;;;;;;12.15;10.05;;;18.60;99.90;;;;;;2091593;28;20874;-71
2023/07/20 03:45:01;;;;;;;11.40;10.32;;;18.60;99.90;;;;;;2091801;28;20025;-71
2023/07/20 03:46:06;;;;;;;11.68;10.48;;;18.60;99.90;;;;;;2092909;28;20036;-69
2023/07/20 03:47:07;;;;;;;12.02;10.80;;;18.60;99.90;;;;;;2094242;28;20471;-70
2023/07/20 03:48:08;;;;;;;8.40;7.65;;;18.70;99.90;;;;;;2093959;28;20139;-70
2023/07/20 03:49:08;;;;;;;12.32;11.02;;;18.60;99.90;;;;;;2094113;28;20025;-71
2023/07/20 03:50:10;;;;;;;10.65;9.20;;;18.70;99.90;;;;;;2091579;28;20043;-71
2023/07/20 03:51:11;;;;;;;12.80;11.57;;;18.70;99.90;;;;;;2091370;28;20021;-71
2023/07/20 03:52:11;;;;;;;12.90;11.63;;;18.70;99.90;;;;;;2092925;28;20025;-71
2023/07/20 03:53:12;;;;;;;12.05;10.80;;;18.70;99.90;;;;;;2091727;28;20037;-71
2023/07/20 03:54:13;;;;;;;13.68;12.25;;;18.70;99.90;;;;;;2090379;28;20094;-71
2023/07/20 03:55:13;;;;;;;11.35;9.77;;;18.70;99.90;;;;;;2092938;28;20077;-71
2023/07/20 03:56:14;;;;;;;14.82;9.00;;;18.70;99.90;;;;;;2094604;28;20681;-71
2023/07/20 03:57:15;;;;;;;7.68;6.97;;;18.70;99.90;;;;;;2093218;28;20032;-71
2023/07/20 03:58:16;;;;;;;10.73;9.63;;;18.70;99.90;;;;;;2091993;28;20036;-71
2023/07/20 03:59:16;;;;;;;13.85;10.15;;;18.70;99.90;;;;;;2093277;28;20028;-71
2023/07/20 04:00:18;;;;;;;10.85;9.02;;;18.70;99.90;;;;;;2092965;28;20112;-71
2023/07/20 04:01:18;;;;;;;14.10;12.60;;;18.70;99.90;;;;;;2094893;28;20154;-71
2023/07/20 04:02:19;;;;;;;11.93;10.70;;;18.70;99.90;;;;;;2092846;28;20025;-71
2023/07/20 04:03:20;;;;;;;14.55;12.32;;;18.70;99.90;;;;;;2092962;28;20067;-71
2023/07/20 04:04:21;;;;;;;14.20;12.35;;;18.70;99.90;;;;;;2096716;28;20146;-71
2023/07/20 04:05:21;;;;;;;13.65;12.25;;;18.70;99.90;;;;;;2088927;28;20029;-71
2023/07/20 04:06:22;;;;;;;13.45;11.65;;;18.70;99.90;;;;;;2096317;28;20036;-71
2023/07/20 04:07:22;;;;;;;12.43;11.18;;;18.70;99.90;;;;;;2092836;28;20128;-71
2023/07/20 04:08:24;;;;;;;14.05;12.82;;;18.70;99.90;;;;;;2091466;28;20021;-71
2023/07/20 04:09:24;;;;;;;14.43;13.02;;;18.70;99.90;;;;;;2094765;28;20021;-71
2023/07/20 04:10:25;;;;;;;18.40;14.02;;;18.70;99.90;;;;;;2092896;28;20472;-71
2023/07/20 04:11:26;;;;;;;16.23;13.60;;;18.70;99.90;;;;;;2092526;28;20100;-71
2023/07/20 04:12:26;;;;;;;15.65;12.98;;;18.70;99.90;;;;;;2093937;28;20103;-71
2023/07/20 04:13:27;;;;;;;13.48;12.07;;;18.70;99.90;;;;;;2092622;28;20905;-71
2023/07/20 04:14:28;;;;;;;17.48;12.32;;;18.70;99.90;;;;;;2094579;28;20024;-71
2023/07/20 04:15:29;;;;;;;12.32;10.20;;;18.70;99.90;;;;;;2092992;28;20020;-71
2023/07/20 04:16:29;;;;;;;13.18;11.38;;;18.70;99.90;;;;;;2093394;28;20024;-71
2023/07/20 04:17:30;;;;;;;14.07;10.32;;;18.60;99.90;;;;;;2091742;28;20025;-71
2023/07/20 04:18:30;;;;;;;12.55;10.60;;;18.60;99.90;;;;;;2092007;28;20782;-71
2023/07/20 04:19:31;;;;;;;11.93;10.73;;;18.60;99.90;;;;;;2093209;28;20574;-71
2023/07/20 04:20:31;;;;;;;15.40;11.48;;;18.60;99.90;;;;;;2093559;28;20024;-71
2023/07/20 04:21:32;;;;;;;13.65;11.05;;;18.60;99.90;;;;;;2091578;28;20021;-71
2023/07/20 04:22:33;;;;;;;8.82;8.02;;;18.60;99.90;;;;;;2092562;28;20123;-71
2023/07/20 04:23:34;;;;;;;11.55;10.35;;;18.60;99.90;;;;;;2094179;28;20032;-70
2023/07/20 04:24:35;;;;;;;12.63;11.35;;;18.60;99.90;;;;;;2092076;28;20028;-73
2023/07/20 04:25:38;;;;;;;12.52;11.23;;;18.60;99.90;;;;;;2091330;28;20021;-70
2023/07/20 04:26:39;;;;;;;11.18;10.07;;;18.60;99.90;;;;;;2091589;28;20055;-70
2023/07/20 04:27:39;;;;;;;12.45;11.25;;;18.50;99.90;;;;;;2093532;28;20021;-70
2023/07/20 04:28:43;;;;;;;12.65;11.05;;;18.60;99.90;;;;;;2091788;28;20047;-72
2023/07/20 04:29:44;;;;;;;12.05;10.85;;;18.60;99.90;;;;;;2090731;28;20639;-70
2023/07/20 04:30:44;;;;;;;14.05;12.52;;;18.60;99.90;;;;;;2091775;28;20051;-70
2023/07/20 04:31:45;;;;;;;12.43;11.13;;;18.60;99.90;;;;;;2093122;28;20021;-70
2023/07/20 04:32:46;;;;;;;12.55;11.35;;;18.60;99.90;;;;;;2093789;28;20064;-70
2023/07/20 04:33:47;;;;;;;13.68;11.82;;;18.50;99.90;;;;;;2091500;28;20155;-70
2023/07/20 04:34:47;;;;;;;15.50;12.38;;;18.60;99.90;;;;;;2092570;28;20155;-70
2023/07/20 04:35:53;;;;;;;15.30;11.13;;;18.60;99.90;;;;;;2093687;28;20036;-70
2023/07/20 04:36:53;;;;;;;11.50;9.35;;;18.50;99.90;;;;;;2093745;28;20119;-70
2023/07/20 04:37:54;;;;;;;9.80;8.77;;;18.60;99.90;;;;;;2091779;28;20477;-70
2023/07/20 04:38:54;;;;;;;11.20;8.82;;;18.50;99.90;;;;;;2094274;28;20020;-70
2023/07/20 04:39:55;;;;;;;12.00;10.80;;;18.50;99.90;;;;;;2093986;28;20048;-71
2023/07/20 04:40:55;;;;;;;11.43;10.40;;;18.60;99.90;;;;;;2093636;28;20894;-70
2023/07/20 04:41:56;;;;;;;12.82;11.18;;;18.60;99.90;;;;;;2091887;28;20021;-71
2023/07/20 04:42:57;;;;;;;13.30;11.90;;;18.60;99.90;;;;;;2093486;28;20492;-70
2023/07/20 04:43:57;;;;;;;12.82;11.73;;;18.60;99.90;;;;;;2092732;28;20020;-70
2023/07/20 04:44:58;;;;;;;13.48;11.38;;;18.60;99.90;;;;;;2092974;28;20020;-70
2023/07/20 04:45:58;;;;;;;12.60;11.30;;;18.60;99.90;;;;;;2092544;28;20075;-70
2023/07/20 04:46:59;;;;;;;10.98;9.38;;;18.70;99.90;;;;;;2092959;28;20596;-70
2023/07/20 04:48:00;;;;;;;12.15;10.98;;;18.70;99.90;;;;;;2092767;28;20013;-70
2023/07/20 04:49:01;;;;;;;12.10;10.93;;;18.70;99.90;;;;;;2092274;28;20427;-70
2023/07/20 04:50:02;;;;;;;11.68;10.68;;;18.70;99.90;;;;;;2093547;28;20439;-70
2023/07/20 04:51:03;;;;;;;11.60;10.45;;;18.80;99.90;;;;;;2091436;28;20036;-70
2023/07/20 04:52:04;;;;;;;10.63;9.73;;;18.80;99.90;;;;;;2095248;28;20396;-70
2023/07/20 04:53:04;;;;;;;11.07;9.95;;;18.80;99.90;;;;;;2095612;28;20110;-70
2023/07/20 04:54:05;;;;;;;11.57;10.38;;;18.90;99.90;;;;;;2092984;28;20045;-70
2023/07/20 04:55:06;;;;;;;10.13;9.13;;;18.90;99.90;;;;;;2092197;28;20055;-70
2023/07/20 04:56:06;;;;;;;12.07;11.00;;;18.90;99.90;;;;;;2093921;28;20039;-70
2023/07/20 04:57:13;;;;;;;12.02;11.02;;;18.90;99.90;;;;;;2091960;28;20025;-70
2023/07/20 04:58:13;;;;;;;12.23;11.07;;;18.90;99.90;;;;;;2092116;28;20583;-70
2023/07/20 04:59:14;;;;;;;15.07;11.63;;;18.90;99.90;;;;;;2092525;28;20072;-70
2023/07/20 05:00:15;;;;;;;12.90;11.77;;;18.90;99.90;;;;;;2093147;28;20167;-70
2023/07/20 05:01:15;;;;;;;13.88;12.57;;;18.90;99.90;;;;;;2092088;28;20864;-70
2023/07/20 05:02:16;;;;;;;11.73;10.63;;;18.90;99.90;;;;;;2091006;28;20017;-70
2023/07/20 05:03:17;;;;;;;9.98;8.95;;;18.90;99.90;;;;;;2093992;28;20021;-70
2023/07/20 05:04:17;;;;;;;9.93;8.98;;;18.90;99.90;;;;;;2092899;28;20018;-70
2023/07/20 05:05:19;;;;;;;10.35;9.43;;;18.90;99.90;;;;;;2092072;28;20025;-70
2023/07/20 05:06:19;;;;;;;12.43;11.43;;;18.90;99.90;;;;;;2091811;28;20036;-70
2023/07/20 05:07:20;;;;;;;12.30;10.77;;;18.90;99.90;;;;;;2092309;28;20123;-70
2023/07/20 05:08:22;;;;;;;11.98;10.98;;;18.90;99.90;;;;;;2096169;28;20012;-70
2023/07/20 05:09:22;;;;;;;10.88;9.88;;;18.90;99.90;;;;;;2096102;28;20519;-71
2023/07/20 05:10:24;;;;;;;12.77;11.68;;;18.90;99.90;;;;;;2091664;28;20372;-70
2023/07/20 05:11:24;;;;;;;11.82;10.85;;;18.90;99.90;;;;;;2095637;28;20194;-70
2023/07/20 05:12:25;;;;;;;11.32;10.32;;;18.90;99.90;;;;;;2094572;28;20074;-70
2023/07/20 05:13:26;;;;;;;11.23;10.27;;;18.90;99.90;;;;;;2092211;28;20461;-70
2023/07/20 05:14:27;;;;;;;13.13;11.05;;;18.90;99.90;;;;;;2093430;28;20024;-71
2023/07/20 05:15:27;;;;;;;11.70;10.55;;;18.90;99.90;;;;;;2094033;28;20027;-71
2023/07/20 05:16:28;;;;;;;10.30;9.45;;;18.90;99.90;;;;;;2092495;28;20140;-71
2023/07/20 05:17:29;;;;;;;12.20;10.98;;;18.90;99.90;;;;;;2093388;28;20025;-71
2023/07/20 05:18:30;;;;;;;10.60;9.75;;;18.90;99.90;;;;;;2090850;28;20021;-70
2023/07/20 05:19:30;;;;;;;10.90;9.95;;;18.90;99.90;;;;;;2093603;28;20093;-70